createdAt,value
2018-02-04T00:01:29.347Z,12.63
2018-02-04T00:04:10.849Z,11.02
2018-02-04T00:06:42.864Z,12.45
2018-02-04T00:09:13.435Z,11.40
2018-02-04T05:54:18.303Z,19.05
2018-02-04T06:04:52.934Z,14.87
2018-02-04T06:12:42.059Z,13.52
2018-02-04T06:15:19.672Z,9.57
2018-02-04T06:20:38.126Z,11.35
2018-02-04T06:23:12.770Z,14.45
2018-02-04T06:25:44.860Z,14.40
2018-02-04T06:30:58.341Z,16.00
2018-02-04T06:36:06.528Z,18.05
2018-02-04T06:38:36.873Z,18.37
2018-02-04T06:41:05.381Z,15.77
2018-02-04T06:43:34.646Z,15.70
2018-02-04T06:46:08.126Z,13.27
2018-02-04T06:48:39.550Z,14.25
2018-02-04T06:51:09.210Z,12.52
2018-02-04T06:53:41.456Z,13.95
2018-02-04T06:56:11.110Z,12.50
2018-02-04T06:58:39.688Z,15.18
2018-02-04T07:01:11.893Z,16.60
2018-02-04T07:03:41.292Z,20.08
2018-02-04T07:06:11.129Z,18.95
2018-02-04T07:08:40.439Z,14.02
2018-02-04T07:11:10.250Z,21.45
2018-02-04T07:13:41.682Z,14.48
2018-02-04T07:16:12.069Z,15.55
2018-02-04T07:18:40.552Z,12.75
2018-02-04T07:21:08.739Z,14.18
2018-02-04T07:23:51.761Z,13.98
2018-02-04T07:26:19.951Z,17.62
2018-02-04T07:28:48.902Z,12.88
2018-02-04T07:31:17.829Z,17.95
2018-02-04T07:33:47.556Z,24.90
2018-02-04T07:36:16.057Z,24.42
2018-02-04T07:38:46.655Z,24.75
2018-02-04T07:41:17.727Z,26.52
2018-02-04T07:43:46.907Z,26.77
2018-02-04T07:46:18.039Z,23.10
2018-02-04T07:48:48.275Z,18.85
2018-02-04T07:51:17.206Z,24.10
2018-02-04T07:53:46.224Z,27.17
2018-02-04T07:56:14.378Z,29.40
2018-02-04T07:58:45.174Z,28.08
2018-02-04T08:01:13.336Z,35.15
2018-02-04T08:03:41.570Z,28.80
2018-02-04T08:06:09.750Z,25.90
2018-02-04T08:08:39.977Z,34.75
2018-02-04T08:11:08.190Z,32.47
2018-02-04T08:13:36.347Z,26.90
2018-02-04T08:16:04.548Z,24.83
2018-02-04T08:18:33.140Z,25.35
2018-02-04T08:21:04.770Z,25.73
2018-02-04T08:23:36.176Z,24.23
2018-02-04T08:26:11.318Z,22.62
2018-02-04T08:28:42.273Z,27.85
2018-02-04T08:31:12.249Z,18.08
2018-02-04T08:33:40.423Z,23.05
2018-02-04T08:36:09.502Z,20.98
2018-02-04T08:38:37.959Z,19.02
2018-02-04T08:41:06.820Z,24.42
2018-02-04T08:43:38.687Z,30.12
2018-02-04T08:46:08.309Z,28.58
2018-02-04T08:51:20.376Z,28.98
2018-02-04T08:53:48.850Z,29.37
2018-02-04T08:56:17.879Z,26.05
2018-02-04T08:58:48.431Z,25.50
2018-02-04T09:01:18.151Z,27.80
2018-02-04T09:03:47.237Z,20.45
2018-02-04T09:06:15.403Z,17.92
2018-02-04T09:08:44.603Z,24.83
2018-02-04T09:11:14.382Z,19.45
2018-02-04T09:13:43.305Z,19.35
2018-02-04T09:16:19.157Z,20.00
2018-02-04T09:18:50.380Z,27.87
2018-02-04T09:21:19.015Z,10.57
2018-02-04T09:23:49.760Z,16.87
2018-02-04T09:29:25.061Z,11.27
2018-02-04T09:49:56.417Z,6.18
2018-02-04T09:58:47.900Z,7.22
2018-02-04T10:01:30.788Z,9.90
2018-02-04T10:19:01.256Z,11.45
2018-02-04T10:21:33.695Z,11.45
2018-02-04T10:24:08.019Z,8.05
2018-02-04T10:26:38.376Z,7.43
2018-02-04T10:29:11.453Z,7.62
2018-02-04T10:40:44.135Z,10.93
2018-02-04T11:31:19.876Z,4.95
2018-02-04T11:33:48.043Z,7.15
2018-02-04T11:36:19.218Z,8.02
2018-02-04T11:38:47.481Z,7.47
2018-02-04T11:41:18.525Z,9.95
2018-02-04T11:43:47.742Z,5.15
2018-02-04T11:46:18.208Z,6.57
2018-02-04T11:48:48.188Z,5.50
2018-02-04T11:51:18.557Z,5.07
2018-02-04T11:53:54.964Z,5.57
2018-02-04T11:56:29.809Z,5.47
2018-02-04T11:58:58.548Z,6.68
2018-02-04T12:01:27.979Z,5.20
2018-02-04T12:04:02.154Z,4.35
2018-02-04T12:14:30.055Z,4.12
2018-02-04T12:22:33.386Z,4.90
2018-02-04T12:25:02.385Z,8.20
2018-02-04T12:27:30.704Z,6.20
2018-02-04T12:30:00.108Z,5.95
2018-02-04T12:32:29.564Z,5.65
2018-02-04T12:34:58.744Z,5.05
2018-02-04T12:37:31.909Z,4.97
2018-02-04T12:40:01.262Z,5.72
2018-02-04T12:42:58.513Z,5.57
2018-02-04T12:45:48.508Z,10.27
2018-02-04T12:48:18.047Z,7.95
2018-02-04T12:50:46.424Z,4.57
2018-02-04T13:04:56.477Z,4.45
2018-02-04T13:10:23.059Z,3.30
2018-02-04T13:12:54.332Z,3.53
2018-02-04T13:15:26.335Z,4.35
2018-02-04T13:18:08.279Z,5.87
2018-02-04T13:20:40.853Z,4.72
2018-02-04T13:29:08.611Z,6.57
2018-02-04T13:34:38.433Z,6.25
2018-02-04T13:37:25.243Z,8.50
2018-02-04T13:39:55.324Z,5.15
2018-02-04T13:42:25.940Z,4.07
2018-02-04T13:45:00.108Z,3.45
2018-02-04T14:15:23.623Z,3.10
2018-02-04T14:27:40.921Z,3.97
2018-02-04T15:03:50.508Z,5.15
2018-02-04T15:24:15.620Z,6.93
2018-02-04T17:26:41.150Z,5.70
2018-02-04T17:51:35.051Z,9.38
2018-02-04T17:54:19.805Z,5.80
2018-02-04T17:59:51.524Z,8.77
2018-02-04T18:02:20.644Z,8.50
2018-02-04T18:04:49.057Z,9.25
2018-02-04T18:07:21.309Z,6.20
2018-02-04T18:09:49.470Z,7.15
2018-02-04T18:12:20.073Z,7.05
2018-02-04T18:14:48.236Z,9.48
2018-02-04T18:17:17.072Z,10.30
2018-02-04T18:20:00.717Z,10.02
2018-02-04T18:25:35.463Z,12.27
2018-02-04T18:28:04.465Z,11.10
2018-02-04T18:30:34.974Z,10.63
2018-02-04T18:33:06.996Z,9.07
2018-02-04T18:35:39.049Z,10.02
2018-02-04T18:38:07.868Z,9.25
2018-02-04T18:40:36.789Z,7.85
2018-02-04T18:43:07.019Z,7.57
2018-02-04T18:45:35.177Z,8.75
2018-02-04T18:48:05.454Z,10.32
2018-02-04T18:50:35.119Z,7.47
2018-02-04T18:53:03.292Z,7.90
2018-02-04T18:58:09.554Z,9.93
2018-02-04T19:00:37.763Z,10.93
2018-02-04T19:03:08.321Z,9.77
2018-02-04T19:05:37.498Z,8.95
2018-02-04T19:08:13.124Z,11.20
2018-02-04T19:10:42.244Z,7.85
2018-02-04T19:13:11.234Z,8.30
2018-02-04T19:15:40.400Z,8.73
2018-02-04T19:18:09.753Z,10.23
2018-02-04T19:20:39.847Z,11.52
2018-02-04T19:23:11.116Z,9.57
2018-02-04T19:25:42.521Z,9.13
2018-02-04T19:28:11.831Z,12.88
2018-02-04T19:30:39.977Z,15.13
2018-02-04T19:33:08.138Z,20.45
2018-02-04T19:35:37.817Z,37.75
2018-02-04T19:38:07.756Z,37.65
2018-02-04T19:40:37.567Z,25.75
2018-02-04T19:43:07.347Z,32.13
2018-02-04T19:45:35.501Z,15.57
2018-02-04T19:48:04.571Z,14.13
2018-02-04T19:50:32.777Z,10.40
2018-02-04T19:53:01.000Z,14.23
2018-02-04T19:55:30.411Z,13.65
2018-02-04T19:58:00.648Z,11.52
2018-02-04T20:00:28.835Z,13.50
2018-02-04T20:02:58.855Z,12.55
2018-02-04T20:05:27.017Z,11.80
2018-02-04T20:07:55.580Z,13.85
2018-02-04T20:10:24.511Z,13.70
2018-02-04T20:12:52.734Z,13.82
2018-02-04T20:15:21.567Z,17.08
2018-02-04T20:17:49.827Z,16.05
2018-02-04T20:20:17.989Z,15.15
2018-02-04T20:22:46.153Z,14.77
2018-02-04T20:25:40.647Z,19.10
2018-02-04T20:44:17.165Z,20.75
2018-02-04T20:46:50.859Z,23.77
2018-02-04T20:49:19.041Z,23.75
2018-02-04T20:51:48.208Z,19.98
2018-02-04T20:54:17.246Z,20.00
2018-02-04T20:56:46.230Z,20.12
2018-02-04T20:59:14.960Z,22.87
2018-02-04T21:01:44.590Z,19.58
2018-02-04T21:04:12.897Z,24.77
2018-02-04T21:06:41.119Z,24.80
2018-02-04T21:09:09.579Z,20.08
2018-02-04T21:11:38.679Z,25.20
2018-02-04T21:14:07.688Z,23.67
2018-02-04T21:16:35.860Z,26.48
2018-02-04T21:19:04.818Z,28.98
2018-02-04T21:21:33.027Z,20.60
2018-02-04T21:24:01.172Z,32.05
2018-02-04T21:29:20.003Z,22.17
2018-02-04T21:31:50.545Z,23.17
2018-02-04T21:37:02.222Z,23.83
2018-02-04T21:39:31.109Z,25.50
2018-02-04T21:42:06.666Z,27.10
2018-02-04T21:44:39.614Z,30.30
2018-02-04T21:47:10.431Z,25.77
2018-02-04T21:49:41.150Z,24.17
2018-02-04T21:52:09.668Z,26.02
2018-02-04T21:54:41.953Z,21.48
2018-02-04T21:57:16.988Z,25.37
2018-02-04T21:59:52.795Z,34.60
2018-02-04T22:02:27.710Z,30.27
2018-02-04T22:04:59.670Z,31.35
2018-02-04T22:07:32.089Z,24.30
2018-02-04T22:10:05.771Z,28.25
2018-02-04T22:12:37.940Z,25.20
2018-02-04T22:15:08.228Z,27.95
2018-02-04T22:17:41.577Z,27.45
2018-02-04T22:20:14.408Z,28.80
2018-02-04T22:22:49.075Z,29.17
2018-02-04T22:30:34.332Z,26.35
2018-02-04T22:35:48.261Z,27.40
2018-02-04T22:38:21.194Z,26.45
2018-02-04T22:40:50.691Z,21.92
2018-02-04T22:46:08.164Z,33.72
2018-02-04T22:56:35.185Z,27.20
2018-02-04T22:59:06.483Z,23.73
2018-02-04T23:04:21.944Z,26.15
2018-02-04T23:06:55.038Z,26.35
2018-02-04T23:25:04.799Z,29.42
2018-02-04T23:27:38.747Z,30.27
2018-02-04T23:32:44.283Z,25.95
2018-02-04T23:35:17.755Z,29.37
2018-02-04T23:37:50.918Z,28.52
2018-02-04T23:40:21.900Z,29.23
2018-02-04T23:45:34.795Z,29.75
2018-02-04T23:48:05.488Z,26.55
2018-02-04T23:50:35.456Z,26.65
2018-02-04T23:53:11.189Z,30.77
2018-02-04T23:58:21.425Z,26.60
